sensor_id;sensor_type;location;lat;lon;timestamp;temperature;humidity
26821;DHT22;37186;51.394;5.454;2023-02-08T00:00:57;2.90;78.10
26821;DHT22;37186;51.394;5.454;2023-02-08T00:03:58;2.90;78.10
26821;DHT22;37186;51.394;5.454;2023-02-08T00:06:58;2.90;78.10
26821;DHT22;37186;51.394;5.454;2023-02-08T00:09:59;2.90;78.10
26821;DHT22;37186;51.394;5.454;2023-02-08T00:13:00;2.80;78.10
26821;DHT22;37186;51.394;5.454;2023-02-08T00:16:00;2.80;78.10
26821;DHT22;37186;51.394;5.454;2023-02-08T00:19:01;2.80;78.10
26821;DHT22;37186;51.394;5.454;2023-02-08T00:22:02;2.80;78.10
26821;DHT22;37186;51.394;5.454;2023-02-08T00:25:02;2.80;78.90
26821;DHT22;37186;51.394;5.454;2023-02-08T00:28:04;2.80;78.10
26821;DHT22;37186;51.394;5.454;2023-02-08T00:31:04;2.70;78.10
26821;DHT22;37186;51.394;5.454;2023-02-08T00:34:05;2.70;78.00
26821;DHT22;37186;51.394;5.454;2023-02-08T00:37:06;2.70;78.00
26821;DHT22;37186;51.394;5.454;2023-02-08T00:40:07;2.70;78.10
26821;DHT22;37186;51.394;5.454;2023-02-08T00:43:08;2.70;78.10
26821;DHT22;37186;51.394;5.454;2023-02-08T01:33:34;2.40;78.50
26821;DHT22;37186;51.394;5.454;2023-02-08T01:36:36;2.40;77.80
26821;DHT22;37186;51.394;5.454;2023-02-08T01:39:37;2.40;77.90
26821;DHT22;37186;51.394;5.454;2023-02-08T01:42:37;2.40;77.90
26821;DHT22;37186;51.394;5.454;2023-02-08T01:45:38;2.40;77.90
26821;DHT22;37186;51.394;5.454;2023-02-08T01:48:40;2.30;77.90
26821;DHT22;37186;51.394;5.454;2023-02-08T01:51:46;2.30;77.90
26821;DHT22;37186;51.394;5.454;2023-02-08T01:54:56;2.30;77.90
26821;DHT22;37186;51.394;5.454;2023-02-08T01:58:01;2.30;77.90
26821;DHT22;37186;51.394;5.454;2023-02-08T02:01:04;2.30;77.90
26821;DHT22;37186;51.394;5.454;2023-02-08T02:04:06;2.20;77.90
26821;DHT22;37186;51.394;5.454;2023-02-08T02:07:07;2.20;77.90
26821;DHT22;37186;51.394;5.454;2023-02-08T02:10:13;2.20;77.80
26821;DHT22;37186;51.394;5.454;2023-02-08T02:13:19;2.20;77.90
26821;DHT22;37186;51.394;5.454;2023-02-08T02:16:20;2.20;77.90
26821;DHT22;37186;51.394;5.454;2023-02-08T02:29:40;2.10;77.80
26821;DHT22;37186;51.394;5.454;2023-02-08T02:39:25;2.00;77.90
26821;DHT22;37186;51.394;5.454;2023-02-08T02:49:19;2.00;78.70
26821;DHT22;37186;51.394;5.454;2023-02-08T02:52:34;2.00;77.80
26821;DHT22;37186;51.394;5.454;2023-02-08T02:55:41;2.00;77.80
26821;DHT22;37186;51.394;5.454;2023-02-08T02:58:43;2.00;77.80
26821;DHT22;37186;51.394;5.454;2023-02-08T03:01:45;1.90;77.80
26821;DHT22;37186;51.394;5.454;2023-02-08T03:04:49;1.90;77.70
26821;DHT22;37186;51.394;5.454;2023-02-08T03:08:07;1.90;77.80
26821;DHT22;37186;51.394;5.454;2023-02-08T03:18:03;1.80;77.70
26821;DHT22;37186;51.394;5.454;2023-02-08T03:21:17;1.80;77.70
26821;DHT22;37186;51.394;5.454;2023-02-08T03:34:10;1.70;77.70
26821;DHT22;37186;51.394;5.454;2023-02-08T03:37:26;1.70;77.70
26821;DHT22;37186;51.394;5.454;2023-02-08T03:40:41;1.70;77.80
26821;DHT22;37186;51.394;5.454;2023-02-08T03:43:47;1.70;77.80
26821;DHT22;37186;51.394;5.454;2023-02-08T03:46:58;1.70;77.70
26821;DHT22;37186;51.394;5.454;2023-02-08T03:50:04;1.70;77.80
26821;DHT22;37186;51.394;5.454;2023-02-08T03:53:07;1.70;77.70
26821;DHT22;37186;51.394;5.454;2023-02-08T03:56:13;1.70;77.90
26821;DHT22;37186;51.394;5.454;2023-02-08T03:59:22;1.70;77.80
26821;DHT22;37186;51.394;5.454;2023-02-08T04:02:27;1.60;77.70
26821;DHT22;37186;51.394;5.454;2023-02-08T04:05:28;1.60;77.70
26821;DHT22;37186;51.394;5.454;2023-02-08T04:08:29;1.60;77.70
26821;DHT22;37186;51.394;5.454;2023-02-08T04:11:29;1.60;77.70
26821;DHT22;37186;51.394;5.454;2023-02-08T04:14:30;1.60;77.70
26821;DHT22;37186;51.394;5.454;2023-02-08T04:17:30;1.60;77.70
26821;DHT22;37186;51.394;5.454;2023-02-08T04:20:32;1.60;77.60
26821;DHT22;37186;51.394;5.454;2023-02-08T04:23:32;1.60;77.70
26821;DHT22;37186;51.394;5.454;2023-02-08T04:26:33;1.50;77.60
26821;DHT22;37186;51.394;5.454;2023-02-08T04:29:34;1.50;77.70
26821;DHT22;37186;51.394;5.454;2023-02-08T04:32:34;1.50;77.70
26821;DHT22;37186;51.394;5.454;2023-02-08T04:35:35;1.50;77.70
26821;DHT22;37186;51.394;5.454;2023-02-08T04:38:35;1.50;77.70
26821;DHT22;37186;51.394;5.454;2023-02-08T04:41:36;1.40;77.60
26821;DHT22;37186;51.394;5.454;2023-02-08T04:44:36;1.40;77.60
26821;DHT22;37186;51.394;5.454;2023-02-08T04:47:37;1.40;77.70
26821;DHT22;37186;51.394;5.454;2023-02-08T04:50:38;1.40;77.60
26821;DHT22;37186;51.394;5.454;2023-02-08T04:53:38;1.40;77.70
26821;DHT22;37186;51.394;5.454;2023-02-08T04:56:39;1.40;77.60
26821;DHT22;37186;51.394;5.454;2023-02-08T04:59:40;1.40;77.70
26821;DHT22;37186;51.394;5.454;2023-02-08T05:02:40;1.40;77.70
26821;DHT22;37186;51.394;5.454;2023-02-08T05:05:41;1.30;77.60
26821;DHT22;37186;51.394;5.454;2023-02-08T05:08:41;1.30;77.60
26821;DHT22;37186;51.394;5.454;2023-02-08T05:11:42;1.30;77.70
26821;DHT22;37186;51.394;5.454;2023-02-08T05:14:42;1.30;77.60
26821;DHT22;37186;51.394;5.454;2023-02-08T05:17:43;1.30;77.70
26821;DHT22;37186;51.394;5.454;2023-02-08T05:20:43;1.30;77.60
26821;DHT22;37186;51.394;5.454;2023-02-08T05:23:44;1.30;77.60
26821;DHT22;37186;51.394;5.454;2023-02-08T05:26:45;1.30;77.70
26821;DHT22;37186;51.394;5.454;2023-02-08T05:29:45;1.30;77.70
26821;DHT22;37186;51.394;5.454;2023-02-08T05:32:46;1.30;77.60
26821;DHT22;37186;51.394;5.454;2023-02-08T05:35:46;1.20;77.60
26821;DHT22;37186;51.394;5.454;2023-02-08T05:38:47;1.20;77.60
26821;DHT22;37186;51.394;5.454;2023-02-08T05:41:48;1.20;77.60
26821;DHT22;37186;51.394;5.454;2023-02-08T05:44:48;1.20;77.60
26821;DHT22;37186;51.394;5.454;2023-02-08T05:47:49;1.20;77.60
26821;DHT22;37186;51.394;5.454;2023-02-08T05:50:49;1.20;77.60
26821;DHT22;37186;51.394;5.454;2023-02-08T05:53:50;1.20;77.60
26821;DHT22;37186;51.394;5.454;2023-02-08T05:56:50;1.10;77.60
26821;DHT22;37186;51.394;5.454;2023-02-08T05:59:51;1.20;78.40
26821;DHT22;37186;51.394;5.454;2023-02-08T06:02:51;1.20;77.60
26821;DHT22;37186;51.394;5.454;2023-02-08T06:05:52;1.10;77.60
26821;DHT22;37186;51.394;5.454;2023-02-08T06:08:53;1.10;77.60
26821;DHT22;37186;51.394;5.454;2023-02-08T06:11:53;1.10;77.60
26821;DHT22;37186;51.394;5.454;2023-02-08T06:14:54;1.10;77.60
26821;DHT22;37186;51.394;5.454;2023-02-08T06:17:54;1.10;77.60
26821;DHT22;37186;51.394;5.454;2023-02-08T06:20:55;1.10;77.60
26821;DHT22;37186;51.394;5.454;2023-02-08T06:23:55;1.10;77.60
26821;DHT22;37186;51.394;5.454;2023-02-08T06:26:56;1.10;77.60
26821;DHT22;37186;51.394;5.454;2023-02-08T06:29:56;1.10;77.60
26821;DHT22;37186;51.394;5.454;2023-02-08T06:32:57;1.10;77.60
26821;DHT22;37186;51.394;5.454;2023-02-08T06:35:58;1.10;77.60
26821;DHT22;37186;51.394;5.454;2023-02-08T06:38:58;1.00;77.60
26821;DHT22;37186;51.394;5.454;2023-02-08T06:41:59;1.10;77.60
26821;DHT22;37186;51.394;5.454;2023-02-08T06:44:59;1.00;77.50
26821;DHT22;37186;51.394;5.454;2023-02-08T06:48:00;1.00;77.50
26821;DHT22;37186;51.394;5.454;2023-02-08T06:51:00;1.00;77.60
26821;DHT22;37186;51.394;5.454;2023-02-08T06:54:01;1.00;77.60
26821;DHT22;37186;51.394;5.454;2023-02-08T06:57:02;1.00;77.60
26821;DHT22;37186;51.394;5.454;2023-02-08T07:00:03;1.00;77.60
26821;DHT22;37186;51.394;5.454;2023-02-08T07:03:04;1.00;77.60
26821;DHT22;37186;51.394;5.454;2023-02-08T07:06:04;1.00;77.60
26821;DHT22;37186;51.394;5.454;2023-02-08T07:09:05;1.00;77.60
26821;DHT22;37186;51.394;5.454;2023-02-08T07:12:06;1.00;77.60
26821;DHT22;37186;51.394;5.454;2023-02-08T07:15:07;1.00;77.60
26821;DHT22;37186;51.394;5.454;2023-02-08T07:18:07;1.00;77.60
26821;DHT22;37186;51.394;5.454;2023-02-08T07:21:08;0.90;77.60
26821;DHT22;37186;51.394;5.454;2023-02-08T07:24:10;1.00;77.60
26821;DHT22;37186;51.394;5.454;2023-02-08T07:27:12;0.90;77.50
26821;DHT22;37186;51.394;5.454;2023-02-08T07:30:13;0.90;77.40
26821;DHT22;37186;51.394;5.454;2023-02-08T07:33:13;0.90;77.60
26821;DHT22;37186;51.394;5.454;2023-02-08T07:36:14;0.90;77.60
26821;DHT22;37186;51.394;5.454;2023-02-08T07:39:14;0.90;77.50
26821;DHT22;37186;51.394;5.454;2023-02-08T07:42:15;0.90;77.60
26821;DHT22;37186;51.394;5.454;2023-02-08T07:45:16;0.90;77.60
26821;DHT22;37186;51.394;5.454;2023-02-08T07:48:16;0.90;77.60
26821;DHT22;37186;51.394;5.454;2023-02-08T07:51:17;0.90;77.60
26821;DHT22;37186;51.394;5.454;2023-02-08T07:54:18;0.90;77.60
26821;DHT22;37186;51.394;5.454;2023-02-08T07:57:18;0.90;77.60
26821;DHT22;37186;51.394;5.454;2023-02-08T08:00:21;0.90;77.60
26821;DHT22;37186;51.394;5.454;2023-02-08T08:03:22;0.90;77.70
26821;DHT22;37186;51.394;5.454;2023-02-08T08:06:22;0.90;77.70
26821;DHT22;37186;51.394;5.454;2023-02-08T08:09:23;0.90;77.70
26821;DHT22;37186;51.394;5.454;2023-02-08T08:12:23;0.90;77.70
26821;DHT22;37186;51.394;5.454;2023-02-08T08:15:24;0.90;77.70
26821;DHT22;37186;51.394;5.454;2023-02-08T08:18:24;0.90;77.70
26821;DHT22;37186;51.394;5.454;2023-02-08T08:21:25;0.90;77.80
26821;DHT22;37186;51.394;5.454;2023-02-08T08:24:25;1.00;77.80
26821;DHT22;37186;51.394;5.454;2023-02-08T08:27:26;0.90;77.80
26821;DHT22;37186;51.394;5.454;2023-02-08T08:30:26;1.00;77.80
26821;DHT22;37186;51.394;5.454;2023-02-08T08:33:27;1.00;77.80
26821;DHT22;37186;51.394;5.454;2023-02-08T08:36:28;1.00;77.80
26821;DHT22;37186;51.394;5.454;2023-02-08T08:39:29;1.00;77.80
26821;DHT22;37186;51.394;5.454;2023-02-08T08:42:29;1.00;77.80
26821;DHT22;37186;51.394;5.454;2023-02-08T08:45:30;1.10;78.00
26821;DHT22;37186;51.394;5.454;2023-02-08T08:48:33;1.10;77.90
26821;DHT22;37186;51.394;5.454;2023-02-08T08:51:33;1.10;78.00
26821;DHT22;37186;51.394;5.454;2023-02-08T08:54:34;1.10;77.90
26821;DHT22;37186;51.394;5.454;2023-02-08T08:57:35;1.20;78.90
26821;DHT22;37186;51.394;5.454;2023-02-08T09:00:36;1.10;78.10
26821;DHT22;37186;51.394;5.454;2023-02-08T09:03:36;1.20;78.10
26821;DHT22;37186;51.394;5.454;2023-02-08T09:06:37;1.20;78.10
26821;DHT22;37186;51.394;5.454;2023-02-08T09:09:38;1.20;78.10
26821;DHT22;37186;51.394;5.454;2023-02-08T09:12:40;1.30;78.30
26821;DHT22;37186;51.394;5.454;2023-02-08T09:15:40;1.30;78.30
26821;DHT22;37186;51.394;5.454;2023-02-08T09:18:41;1.30;78.30
26821;DHT22;37186;51.394;5.454;2023-02-08T09:21:42;1.30;78.30
26821;DHT22;37186;51.394;5.454;2023-02-08T09:24:43;1.40;78.40
26821;DHT22;37186;51.394;5.454;2023-02-08T09:27:43;1.40;78.40
26821;DHT22;37186;51.394;5.454;2023-02-08T09:30:44;1.40;78.40
26821;DHT22;37186;51.394;5.454;2023-02-08T09:33:45;1.50;78.50
26821;DHT22;37186;51.394;5.454;2023-02-08T09:36:46;1.50;78.50
26821;DHT22;37186;51.394;5.454;2023-02-08T09:39:46;1.60;78.50
26821;DHT22;37186;51.394;5.454;2023-02-08T09:42:54;1.60;78.50
26821;DHT22;37186;51.394;5.454;2023-02-08T09:46:06;1.60;78.60
26821;DHT22;37186;51.394;5.454;2023-02-08T09:49:14;1.70;78.60
26821;DHT22;37186;51.394;5.454;2023-02-08T09:52:20;1.70;78.60
26821;DHT22;37186;51.394;5.454;2023-02-08T09:55:52;1.80;78.60
26821;DHT22;37186;51.394;5.454;2023-02-08T09:58:55;1.80;78.60
26821;DHT22;37186;51.394;5.454;2023-02-08T10:02:18;1.90;78.80
26821;DHT22;37186;51.394;5.454;2023-02-08T10:05:24;1.90;78.80
26821;DHT22;37186;51.394;5.454;2023-02-08T10:08:27;2.00;78.80
26821;DHT22;37186;51.394;5.454;2023-02-08T10:15:28;2.10;78.80
26821;DHT22;37186;51.394;5.454;2023-02-08T10:22:43;2.20;78.90
26821;DHT22;37186;51.394;5.454;2023-02-08T10:26:10;2.30;78.90
26821;DHT22;37186;51.394;5.454;2023-02-08T10:35:57;2.40;78.90
26821;DHT22;37186;51.394;5.454;2023-02-08T10:38:58;2.40;78.90
26821;DHT22;37186;51.394;5.454;2023-02-08T10:42:00;2.50;79.00
26821;DHT22;37186;51.394;5.454;2023-02-08T10:45:03;2.60;79.00
26821;DHT22;37186;51.394;5.454;2023-02-08T10:48:13;2.60;79.10
26821;DHT22;37186;51.394;5.454;2023-02-08T10:51:16;2.60;79.10
26821;DHT22;37186;51.394;5.454;2023-02-08T10:54:16;2.70;79.10
26821;DHT22;37186;51.394;5.454;2023-02-08T10:57:22;2.80;79.20
26821;DHT22;37186;51.394;5.454;2023-02-08T11:00:30;2.80;79.20
26821;DHT22;37186;51.394;5.454;2023-02-08T11:03:31;2.90;79.20
26821;DHT22;37186;51.394;5.454;2023-02-08T11:06:33;2.90;79.20
26821;DHT22;37186;51.394;5.454;2023-02-08T11:09:33;3.00;79.30
26821;DHT22;37186;51.394;5.454;2023-02-08T11:12:34;3.00;79.30
26821;DHT22;37186;51.394;5.454;2023-02-08T11:15:55;3.10;79.30
26821;DHT22;37186;51.394;5.454;2023-02-08T11:19:00;3.20;79.40
26821;DHT22;37186;51.394;5.454;2023-02-08T11:22:02;3.20;79.40
26821;DHT22;37186;51.394;5.454;2023-02-08T11:25:06;3.30;80.20
26821;DHT22;37186;51.394;5.454;2023-02-08T11:28:29;3.30;79.40
26821;DHT22;37186;51.394;5.454;2023-02-08T11:31:30;3.40;79.40
26821;DHT22;37186;51.394;5.454;2023-02-08T11:34:36;3.50;79.60
26821;DHT22;37186;51.394;5.454;2023-02-08T11:37:45;3.50;79.60
26821;DHT22;37186;51.394;5.454;2023-02-08T11:40:46;3.60;79.60
26821;DHT22;37186;51.394;5.454;2023-02-08T11:44:06;3.60;79.80
26821;DHT22;37186;51.394;5.454;2023-02-08T11:47:08;3.70;80.00
26821;DHT22;37186;51.394;5.454;2023-02-08T11:50:22;3.80;80.10
26821;DHT22;37186;51.394;5.454;2023-02-08T11:53:35;3.90;80.20
26821;DHT22;37186;51.394;5.454;2023-02-08T11:56:38;4.00;80.10
26821;DHT22;37186;51.394;5.454;2023-02-08T11:59:39;4.10;80.30
26821;DHT22;37186;51.394;5.454;2023-02-08T12:02:42;4.20;80.40
26821;DHT22;37186;51.394;5.454;2023-02-08T12:09:00;4.40;80.50
26821;DHT22;37186;51.394;5.454;2023-02-08T12:12:26;4.50;80.50
26821;DHT22;37186;51.394;5.454;2023-02-08T12:22:15;4.80;80.70
26821;DHT22;37186;51.394;5.454;2023-02-08T12:37:56;5.40;80.60
26821;DHT22;37186;51.394;5.454;2023-02-08T12:41:34;5.50;80.60
26821;DHT22;37186;51.394;5.454;2023-02-08T12:48:09;5.70;80.50
26821;DHT22;37186;51.394;5.454;2023-02-08T12:51:41;5.80;80.50
26821;DHT22;37186;51.394;5.454;2023-02-08T12:55:29;5.90;80.30
26821;DHT22;37186;51.394;5.454;2023-02-08T12:58:37;6.00;80.30
26821;DHT22;37186;51.394;5.454;2023-02-08T13:01:45;6.10;80.30
26821;DHT22;37186;51.394;5.454;2023-02-08T13:04:50;6.10;80.20
26821;DHT22;37186;51.394;5.454;2023-02-08T13:11:38;6.30;80.30
26821;DHT22;37186;51.394;5.454;2023-02-08T13:14:49;6.40;80.50
26821;DHT22;37186;51.394;5.454;2023-02-08T13:18:03;6.50;80.50
26821;DHT22;37186;51.394;5.454;2023-02-08T13:21:14;6.50;80.50
26821;DHT22;37186;51.394;5.454;2023-02-08T13:24:36;6.60;80.60
26821;DHT22;37186;51.394;5.454;2023-02-08T13:27:37;6.70;80.40
26821;DHT22;37186;51.394;5.454;2023-02-08T13:30:38;6.80;80.90
26821;DHT22;37186;51.394;5.454;2023-02-08T13:33:48;6.90;80.90
26821;DHT22;37186;51.394;5.454;2023-02-08T13:36:56;7.00;80.90
26821;DHT22;37186;51.394;5.454;2023-02-08T13:40:18;7.10;80.60
26821;DHT22;37186;51.394;5.454;2023-02-08T13:43:28;7.20;80.60
26821;DHT22;37186;51.394;5.454;2023-02-08T13:46:42;7.30;80.90
26821;DHT22;37186;51.394;5.454;2023-02-08T13:52:50;7.50;81.70
26821;DHT22;37186;51.394;5.454;2023-02-08T13:55:58;7.60;81.00
26821;DHT22;37186;51.394;5.454;2023-02-08T13:59:00;7.70;81.10
26821;DHT22;37186;51.394;5.454;2023-02-08T14:09:06;8.00;81.20
26821;DHT22;37186;51.394;5.454;2023-02-08T14:12:14;8.10;81.10
26821;DHT22;37186;51.394;5.454;2023-02-08T14:18:27;8.20;80.90
26821;DHT22;37186;51.394;5.454;2023-02-08T14:21:45;8.30;81.10
26821;DHT22;37186;51.394;5.454;2023-02-08T14:25:15;8.50;81.30
26821;DHT22;37186;51.394;5.454;2023-02-08T14:28:27;8.60;81.20
26821;DHT22;37186;51.394;5.454;2023-02-08T14:31:41;8.70;81.30
26821;DHT22;37186;51.394;5.454;2023-02-08T14:34:42;8.80;81.20
26821;DHT22;37186;51.394;5.454;2023-02-08T14:37:44;8.90;81.30
26821;DHT22;37186;51.394;5.454;2023-02-08T14:40:48;9.00;81.50
26821;DHT22;37186;51.394;5.454;2023-02-08T14:43:49;9.10;81.60
26821;DHT22;37186;51.394;5.454;2023-02-08T14:46:49;9.20;81.50
26821;DHT22;37186;51.394;5.454;2023-02-08T14:50:27;9.30;81.90
26821;DHT22;37186;51.394;5.454;2023-02-08T14:57:16;9.50;81.10
26821;DHT22;37186;51.394;5.454;2023-02-08T15:00:26;9.50;81.10
26821;DHT22;37186;51.394;5.454;2023-02-08T15:03:30;9.60;80.80
26821;DHT22;37186;51.394;5.454;2023-02-08T15:09:40;9.60;80.30
26821;DHT22;37186;51.394;5.454;2023-02-08T15:12:45;9.60;80.10
26821;DHT22;37186;51.394;5.454;2023-02-08T15:15:51;9.60;80.10
26821;DHT22;37186;51.394;5.454;2023-02-08T15:18:53;9.60;80.00
26821;DHT22;37186;51.394;5.454;2023-02-08T15:21:54;9.60;80.00
26821;DHT22;37186;51.394;5.454;2023-02-08T15:24:56;9.50;79.90
26821;DHT22;37186;51.394;5.454;2023-02-08T15:28:15;9.50;79.90
26821;DHT22;37186;51.394;5.454;2023-02-08T15:31:19;9.50;79.90
26821;DHT22;37186;51.394;5.454;2023-02-08T15:34:24;9.50;79.80
26821;DHT22;37186;51.394;5.454;2023-02-08T15:37:27;9.50;79.60
26821;DHT22;37186;51.394;5.454;2023-02-08T15:40:32;9.40;79.50
26821;DHT22;37186;51.394;5.454;2023-02-08T15:43:34;9.40;79.30
26821;DHT22;37186;51.394;5.454;2023-02-08T15:46:36;9.30;79.20
26821;DHT22;37186;51.394;5.454;2023-02-08T15:49:40;9.30;79.10
26821;DHT22;37186;51.394;5.454;2023-02-08T15:52:41;9.30;79.00
26821;DHT22;37186;51.394;5.454;2023-02-08T15:55:57;9.20;78.60
26821;DHT22;37186;51.394;5.454;2023-02-08T15:59:00;9.10;78.60
26821;DHT22;37186;51.394;5.454;2023-02-08T16:05:25;9.00;78.20
26821;DHT22;37186;51.394;5.454;2023-02-08T16:08:29;8.80;78.30
26821;DHT22;37186;51.394;5.454;2023-02-08T16:11:32;8.80;78.20
26821;DHT22;37186;51.394;5.454;2023-02-08T16:14:42;8.70;78.10
26821;DHT22;37186;51.394;5.454;2023-02-08T16:17:44;8.60;77.90
26821;DHT22;37186;51.394;5.454;2023-02-08T16:20:56;8.50;77.90
26821;DHT22;37186;51.394;5.454;2023-02-08T16:24:05;8.40;77.70
26821;DHT22;37186;51.394;5.454;2023-02-08T16:27:23;8.40;77.70
26821;DHT22;37186;51.394;5.454;2023-02-08T16:30:25;8.30;77.60
26821;DHT22;37186;51.394;5.454;2023-02-08T16:33:26;8.20;77.50
26821;DHT22;37186;51.394;5.454;2023-02-08T16:36:37;8.10;77.40
26821;DHT22;37186;51.394;5.454;2023-02-08T16:39:51;8.00;77.50
26821;DHT22;37186;51.394;5.454;2023-02-08T16:42:52;7.90;77.20
26821;DHT22;37186;51.394;5.454;2023-02-08T16:49:15;7.70;77.30
26821;DHT22;37186;51.394;5.454;2023-02-08T16:52:16;7.60;77.20
26821;DHT22;37186;51.394;5.454;2023-02-08T16:55:19;7.50;77.10
26821;DHT22;37186;51.394;5.454;2023-02-08T16:58:20;7.50;77.20
26821;DHT22;37186;51.394;5.454;2023-02-08T17:01:21;7.40;76.90
26821;DHT22;37186;51.394;5.454;2023-02-08T17:04:23;7.30;77.10
26821;DHT22;37186;51.394;5.454;2023-02-08T17:07:24;7.20;77.00
26821;DHT22;37186;51.394;5.454;2023-02-08T17:10:30;7.20;77.00
26821;DHT22;37186;51.394;5.454;2023-02-08T17:13:31;7.00;76.90
26821;DHT22;37186;51.394;5.454;2023-02-08T17:16:33;7.00;76.90
26821;DHT22;37186;51.394;5.454;2023-02-08T17:19:34;6.90;76.70
26821;DHT22;37186;51.394;5.454;2023-02-08T17:22:34;6.80;76.60
26821;DHT22;37186;51.394;5.454;2023-02-08T17:25:35;6.80;76.70
26821;DHT22;37186;51.394;5.454;2023-02-08T17:28:35;6.70;76.80
26821;DHT22;37186;51.394;5.454;2023-02-08T17:31:38;6.60;76.80
26821;DHT22;37186;51.394;5.454;2023-02-08T17:34:38;6.60;76.90
26821;DHT22;37186;51.394;5.454;2023-02-08T17:37:40;6.50;76.80
26821;DHT22;37186;51.394;5.454;2023-02-08T17:40:41;6.40;76.60
26821;DHT22;37186;51.394;5.454;2023-02-08T17:43:42;6.40;76.80
26821;DHT22;37186;51.394;5.454;2023-02-08T17:46:42;6.30;76.80
26821;DHT22;37186;51.394;5.454;2023-02-08T17:49:43;6.30;76.80
26821;DHT22;37186;51.394;5.454;2023-02-08T17:52:45;6.20;76.70
26821;DHT22;37186;51.394;5.454;2023-02-08T17:55:46;6.10;76.70
26821;DHT22;37186;51.394;5.454;2023-02-08T17:58:47;6.10;76.80
26821;DHT22;37186;51.394;5.454;2023-02-08T18:01:48;6.00;76.80
26821;DHT22;37186;51.394;5.454;2023-02-08T18:04:49;6.00;76.70
26821;DHT22;37186;51.394;5.454;2023-02-08T18:07:51;5.90;76.70
26821;DHT22;37186;51.394;5.454;2023-02-08T18:10:52;5.90;76.80
26821;DHT22;37186;51.394;5.454;2023-02-08T18:13:53;5.80;76.80
26821;DHT22;37186;51.394;5.454;2023-02-08T18:16:55;5.80;76.80
26821;DHT22;37186;51.394;5.454;2023-02-08T18:19:57;5.70;76.80
26821;DHT22;37186;51.394;5.454;2023-02-08T18:22:58;5.70;76.90
26821;DHT22;37186;51.394;5.454;2023-02-08T18:26:03;5.60;77.50
26821;DHT22;37186;51.394;5.454;2023-02-08T18:29:04;5.60;76.70
26821;DHT22;37186;51.394;5.454;2023-02-08T18:32:04;5.50;76.70
26821;DHT22;37186;51.394;5.454;2023-02-08T18:35:07;5.50;76.70
26821;DHT22;37186;51.394;5.454;2023-02-08T18:38:08;5.40;76.60
26821;DHT22;37186;51.394;5.454;2023-02-08T18:41:09;5.40;76.60
26821;DHT22;37186;51.394;5.454;2023-02-08T18:44:10;5.40;76.60
26821;DHT22;37186;51.394;5.454;2023-02-08T18:47:11;5.30;76.60
26821;DHT22;37186;51.394;5.454;2023-02-08T18:50:12;5.30;76.50
26821;DHT22;37186;51.394;5.454;2023-02-08T18:53:12;5.20;76.60
26821;DHT22;37186;51.394;5.454;2023-02-08T18:56:13;5.20;76.60
26821;DHT22;37186;51.394;5.454;2023-02-08T18:59:14;5.10;76.50
26821;DHT22;37186;51.394;5.454;2023-02-08T19:02:18;5.10;76.50
26821;DHT22;37186;51.394;5.454;2023-02-08T19:05:20;5.00;76.40
26821;DHT22;37186;51.394;5.454;2023-02-08T19:08:20;5.00;76.40
26821;DHT22;37186;51.394;5.454;2023-02-08T19:14:23;4.90;77.30
26821;DHT22;37186;51.394;5.454;2023-02-08T19:17:24;4.90;76.40
26821;DHT22;37186;51.394;5.454;2023-02-08T19:20:24;4.90;76.40
26821;DHT22;37186;51.394;5.454;2023-02-08T19:23:25;4.80;76.30
26821;DHT22;37186;51.394;5.454;2023-02-08T19:26:28;4.80;76.40
26821;DHT22;37186;51.394;5.454;2023-02-08T19:29:29;4.80;76.40
26821;DHT22;37186;51.394;5.454;2023-02-08T19:32:29;4.70;76.30
26821;DHT22;37186;51.394;5.454;2023-02-08T19:35:34;4.70;76.40
26821;DHT22;37186;51.394;5.454;2023-02-08T19:38:35;4.70;76.40
26821;DHT22;37186;51.394;5.454;2023-02-08T19:41:37;4.60;76.30
26821;DHT22;37186;51.394;5.454;2023-02-08T19:44:38;4.60;76.30
26821;DHT22;37186;51.394;5.454;2023-02-08T19:47:40;4.60;76.30
26821;DHT22;37186;51.394;5.454;2023-02-08T19:50:40;4.50;76.30
26821;DHT22;37186;51.394;5.454;2023-02-08T19:53:42;4.50;76.30
26821;DHT22;37186;51.394;5.454;2023-02-08T19:56:43;4.50;76.30
26821;DHT22;37186;51.394;5.454;2023-02-08T19:59:43;4.50;76.30
26821;DHT22;37186;51.394;5.454;2023-02-08T20:02:44;4.40;76.20
26821;DHT22;37186;51.394;5.454;2023-02-08T20:05:45;4.50;76.30
26821;DHT22;37186;51.394;5.454;2023-02-08T20:08:46;4.40;76.20
26821;DHT22;37186;51.394;5.454;2023-02-08T20:11:48;4.40;76.20
26821;DHT22;37186;51.394;5.454;2023-02-08T20:14:51;4.30;76.20
26821;DHT22;37186;51.394;5.454;2023-02-08T20:17:52;4.30;76.20
26821;DHT22;37186;51.394;5.454;2023-02-08T20:21:00;4.30;76.20
26821;DHT22;37186;51.394;5.454;2023-02-08T20:24:01;4.20;76.10
26821;DHT22;37186;51.394;5.454;2023-02-08T20:27:02;4.20;76.10
26821;DHT22;37186;51.394;5.454;2023-02-08T20:30:03;4.20;76.10
26821;DHT22;37186;51.394;5.454;2023-02-08T20:33:03;4.20;76.00
26821;DHT22;37186;51.394;5.454;2023-02-08T20:36:08;4.20;76.10
26821;DHT22;37186;51.394;5.454;2023-02-08T20:39:12;4.10;76.10
26821;DHT22;37186;51.394;5.454;2023-02-08T20:42:14;4.10;76.10
26821;DHT22;37186;51.394;5.454;2023-02-08T20:45:14;4.10;76.10
26821;DHT22;37186;51.394;5.454;2023-02-08T20:48:15;4.00;76.00
26821;DHT22;37186;51.394;5.454;2023-02-08T20:51:18;4.00;76.00
26821;DHT22;37186;51.394;5.454;2023-02-08T20:54:19;4.00;76.00
26821;DHT22;37186;51.394;5.454;2023-02-08T20:57:23;4.00;76.80
26821;DHT22;37186;51.394;5.454;2023-02-08T21:00:24;3.90;76.00
26821;DHT22;37186;51.394;5.454;2023-02-08T21:03:25;3.90;75.90
26821;DHT22;37186;51.394;5.454;2023-02-08T21:06:28;3.90;75.90
26821;DHT22;37186;51.394;5.454;2023-02-08T21:09:29;3.90;75.90
26821;DHT22;37186;51.394;5.454;2023-02-08T21:12:29;3.80;75.80
26821;DHT22;37186;51.394;5.454;2023-02-08T21:15:30;3.80;75.90
26821;DHT22;37186;51.394;5.454;2023-02-08T21:18:30;3.80;75.80
26821;DHT22;37186;51.394;5.454;2023-02-08T21:21:31;3.70;75.70
26821;DHT22;37186;51.394;5.454;2023-02-08T21:24:32;3.70;75.80
26821;DHT22;37186;51.394;5.454;2023-02-08T21:27:32;3.70;75.80
26821;DHT22;37186;51.394;5.454;2023-02-08T21:30:33;3.70;75.80
26821;DHT22;37186;51.394;5.454;2023-02-08T21:33:33;3.60;75.70
26821;DHT22;37186;51.394;5.454;2023-02-08T21:36:34;3.60;75.70
26821;DHT22;37186;51.394;5.454;2023-02-08T21:39:34;3.60;75.70
26821;DHT22;37186;51.394;5.454;2023-02-08T21:42:35;3.60;75.70
26821;DHT22;37186;51.394;5.454;2023-02-08T21:45:35;3.50;75.60
26821;DHT22;37186;51.394;5.454;2023-02-08T21:48:37;3.50;75.70
26821;DHT22;37186;51.394;5.454;2023-02-08T21:51:56;3.50;75.70
26821;DHT22;37186;51.394;5.454;2023-02-08T21:55:15;3.50;75.70
26821;DHT22;37186;51.394;5.454;2023-02-08T21:58:15;3.40;75.60
26821;DHT22;37186;51.394;5.454;2023-02-08T22:01:16;3.40;75.60
26821;DHT22;37186;51.394;5.454;2023-02-08T22:04:16;3.40;75.70
26821;DHT22;37186;51.394;5.454;2023-02-08T22:07:17;3.40;76.40
26821;DHT22;37186;51.394;5.454;2023-02-08T22:10:20;3.30;75.60
26821;DHT22;37186;51.394;5.454;2023-02-08T22:13:21;3.30;75.60
26821;DHT22;37186;51.394;5.454;2023-02-08T22:16:21;3.30;75.70
26821;DHT22;37186;51.394;5.454;2023-02-08T22:19:22;3.30;75.70